To NAV CANADA Home Page Login to a new session Search on AWWS site Feedback and Comments Disclaimer Vers la page française équivalente Tips FAQ What's new on the site To the Forecasts and Observations / NOTAM section To "File a Flight Plan" website Publications and other links Update of the User's profile FIC Telephone Numbers My Weather Data Folder Route Weather Data Regional Weather Data Local Weather Data To the Forecasts and Observations / NOTAM section
Request Generated 03/28/2015 at 18:46:17 UTC . Weather information available at that time is displayed.

METAR/TAF

PAULATUK/PAULATUK (NORA ALIQATCHIALUK RUBEN)/NT    

METAR CYPC 281800Z 10004KT 15SM -SN OVC045 M18/M21 A2982 RMK SC8
SLP097=
METAR CYPC 281700Z 08005KT 15SM -SN FEW050 BKN080 M19/M22 A2981 RMK
SC2AC5 SLP095=
METAR CYPC 281600Z 10003KT 15SM -SN FEW050 BKN080 M19/M22 A2979 RMK
SC2AC5 SLP089=

TAF CYPC 281838Z 2819/2823 VRB03KT P6SM -SN BKN050 TEMPO 2819/2823
P6SM NSW SCT050 BKN080
RMK NXT FCST WILL BE ISSUED AT 291445Z=
Your time UTC time
Weather data provided by Environment Canada and NAV CANADA